createdAt,value
2023-01-08T00:00:18.942Z,102081.47
2023-01-08T00:02:46.780Z,102089.84
2023-01-08T00:05:13.748Z,102080.09
2023-01-08T00:07:40.558Z,102077.34
2023-01-08T00:10:07.641Z,102073.97
2023-01-08T00:12:34.988Z,102069.09
2023-01-08T00:15:02.477Z,102071.03
2023-01-08T00:17:30.476Z,102064.66
2023-01-08T00:19:57.289Z,102063.63
2023-01-08T00:22:24.329Z,102064.59
2023-01-08T00:24:51.635Z,102070.03
2023-01-08T00:27:18.429Z,102064.94
2023-01-08T00:29:45.273Z,102057.88
2023-01-08T00:32:12.016Z,102056.03
2023-01-08T00:34:38.882Z,102045.84
2023-01-08T00:37:08.044Z,102052.72
2023-01-08T00:39:34.990Z,102045.06
2023-01-08T00:42:01.969Z,102044.50
2023-01-08T00:44:28.809Z,102035.25
2023-01-08T00:46:55.581Z,102033.91
2023-01-08T00:49:22.504Z,102039.16
2023-01-08T00:51:49.238Z,102025.47
2023-01-08T00:54:16.061Z,102023.00
2023-01-08T00:56:53.573Z,102027.53
2023-01-08T00:59:25.058Z,102021.28
2023-01-08T01:01:57.179Z,102015.13
2023-01-08T01:04:26.413Z,102023.09
2023-01-08T01:06:53.268Z,102006.69
2023-01-08T01:09:20.086Z,102010.31
2023-01-08T01:11:47.078Z,102011.94
2023-01-08T01:14:13.773Z,102011.94
2023-01-08T01:16:41.965Z,102017.84
2023-01-08T01:19:09.019Z,102017.84
2023-01-08T01:21:36.131Z,102033.66
2023-01-08T01:24:06.181Z,102036.41
2023-01-08T01:26:34.773Z,102028.50
2023-01-08T01:29:04.792Z,102035.28
2023-01-08T01:31:32.572Z,102040.47
2023-01-08T01:34:00.026Z,102055.34
2023-01-08T01:36:27.383Z,102051.81
2023-01-08T01:38:55.762Z,102051.72
2023-01-08T01:41:25.702Z,102050.09
2023-01-08T01:43:53.519Z,102045.84
2023-01-08T01:46:28.048Z,102043.16
2023-01-08T01:48:59.316Z,102044.91
2023-01-08T01:51:31.578Z,102043.28
2023-01-08T01:54:00.734Z,102046.78
2023-01-08T01:56:29.186Z,102028.53
2023-01-08T01:58:58.733Z,102033.38
2023-01-08T02:01:26.567Z,102029.22
2023-01-08T02:03:53.568Z,102031.03
2023-01-08T02:06:53.188Z,102033.59
2023-01-08T02:09:37.165Z,102022.69
2023-01-08T02:12:58.426Z,102018.41
2023-01-08T02:15:52.941Z,102014.56
2023-01-08T02:18:35.644Z,102005.03
2023-01-08T02:21:12.059Z,101996.63
2023-01-08T02:24:25.191Z,101994.28
2023-01-08T02:26:53.874Z,101992.59
2023-01-08T02:29:25.671Z,101991.72
2023-01-08T02:31:52.636Z,101992.72
2023-01-08T02:34:19.438Z,101993.41
2023-01-08T02:36:57.165Z,101985.59
2023-01-08T02:39:56.068Z,101995.53
2023-01-08T02:42:44.224Z,101995.00
2023-01-08T02:45:35.520Z,101984.63
2023-01-08T02:48:08.340Z,101979.59
2023-01-08T02:50:51.979Z,101983.88
2023-01-08T02:53:28.708Z,101983.00
2023-01-08T02:56:00.531Z,101979.66
2023-01-08T02:58:32.271Z,101970.38
2023-01-08T03:01:03.750Z,101972.19
2023-01-08T03:03:33.685Z,101974.69
2023-01-08T03:06:08.631Z,101966.16
2023-01-08T03:08:39.291Z,101967.00
2023-01-08T03:11:14.583Z,101964.28
2023-01-08T03:13:49.888Z,101972.78
2023-01-08T03:16:31.220Z,101969.41
2023-01-08T03:19:08.472Z,101972.00
2023-01-08T03:21:36.777Z,101966.88
2023-01-08T03:24:04.793Z,101969.53
2023-01-08T03:26:33.443Z,101971.25
2023-01-08T03:29:02.816Z,101958.47
2023-01-08T03:31:30.462Z,101957.56
2023-01-08T03:33:59.557Z,101957.59
2023-01-08T03:36:29.153Z,101955.91
2023-01-08T03:39:16.854Z,101958.31
2023-01-08T03:41:43.999Z,101951.03
2023-01-08T03:44:10.876Z,101947.50
2023-01-08T03:46:42.423Z,101949.78
2023-01-08T03:49:09.718Z,101943.16
2023-01-08T03:51:59.043Z,101940.91
2023-01-08T03:54:41.256Z,101938.25
2023-01-08T03:57:08.195Z,101931.34
2023-01-08T03:59:34.976Z,101940.91
2023-01-08T04:02:01.971Z,101933.31
2023-01-08T04:04:31.613Z,101929.16
2023-01-08T04:06:58.461Z,101921.47
2023-01-08T04:09:25.233Z,101892.66
2023-01-08T04:11:52.056Z,101908.53
2023-01-08T04:14:18.994Z,101906.94
2023-01-08T04:16:46.129Z,101909.72
2023-01-08T04:19:13.624Z,101896.88
2023-01-08T04:21:40.607Z,101894.38
2023-01-08T04:24:07.944Z,101885.00
2023-01-08T04:26:34.979Z,101883.25
2023-01-08T04:29:05.300Z,101879.84
2023-01-08T04:31:32.210Z,101877.25
2023-01-08T04:33:58.988Z,101873.88
2023-01-08T04:36:25.858Z,101849.03
2023-01-08T04:38:52.612Z,101865.41
2023-01-08T04:41:19.660Z,101863.03
2023-01-08T04:43:46.434Z,101864.78
2023-01-08T04:46:13.243Z,101865.50
2023-01-08T04:48:40.202Z,101867.31
2023-01-08T04:51:07.117Z,101864.84
2023-01-08T04:53:36.740Z,101866.31
2023-01-08T04:56:09.140Z,101862.94
2023-01-08T04:58:36.925Z,101867.31
2023-01-08T05:01:11.251Z,101862.06
2023-01-08T05:03:38.449Z,101863.81
2023-01-08T05:06:06.455Z,101866.56
2023-01-08T05:08:33.312Z,101862.88
2023-01-08T05:11:00.631Z,101860.41
2023-01-08T05:13:29.096Z,101859.44
2023-01-08T05:15:59.704Z,101860.31
2023-01-08T05:18:27.698Z,101865.75
2023-01-08T05:20:54.484Z,101858.03
2023-01-08T05:23:21.345Z,101862.19
2023-01-08T05:25:48.064Z,101855.25
2023-01-08T05:28:15.075Z,101855.84
2023-01-08T05:30:41.927Z,101843.81
2023-01-08T05:33:08.823Z,101838.81
2023-01-08T05:35:35.615Z,101839.56
2023-01-08T05:38:02.423Z,101842.97
2023-01-08T05:40:31.818Z,101844.66
2023-01-08T05:43:01.890Z,101845.56
2023-01-08T05:45:28.917Z,101840.50
2023-01-08T05:47:55.916Z,101837.09
2023-01-08T05:50:22.824Z,101834.53
2023-01-08T05:52:49.780Z,101834.53
2023-01-08T05:55:17.031Z,101833.84
2023-01-08T05:57:45.211Z,101833.84
2023-01-08T06:00:13.245Z,101833.97
2023-01-08T06:02:40.038Z,101833.97
2023-01-08T06:05:07.185Z,101826.34
2023-01-08T06:07:34.010Z,101818.69
2023-01-08T06:10:01.138Z,101809.47
2023-01-08T06:12:27.940Z,101812.00
2023-01-08T06:14:54.675Z,101816.38
2023-01-08T06:17:21.396Z,101813.75
2023-01-08T06:19:48.422Z,101813.81
2023-01-08T06:22:15.244Z,101822.78
2023-01-08T06:24:42.225Z,101821.91
2023-01-08T06:27:09.155Z,101814.03
2023-01-08T06:29:35.934Z,101810.59
2023-01-08T06:32:02.825Z,101821.81
2023-01-08T06:34:29.620Z,101816.72
2023-01-08T06:36:56.476Z,101819.25
2023-01-08T06:39:23.345Z,101812.31
2023-01-08T06:41:52.285Z,101801.19
2023-01-08T06:44:19.284Z,101810.59
2023-01-08T06:46:46.709Z,101815.81
2023-01-08T06:49:14.950Z,101809.69
2023-01-08T06:51:41.708Z,101810.63
2023-01-08T06:54:08.415Z,101807.31
2023-01-08T06:56:45.523Z,101796.38
2023-01-08T06:59:15.750Z,101784.38
2023-01-08T07:01:42.706Z,101783.44
2023-01-08T07:04:09.485Z,101787.88
2023-01-08T07:06:36.483Z,101789.53
2023-01-08T07:09:06.193Z,101792.94
2023-01-08T07:11:34.320Z,101792.94
2023-01-08T07:14:01.071Z,101791.13
2023-01-08T07:16:27.888Z,101799.00
2023-01-08T07:18:54.774Z,101794.72
2023-01-08T07:21:22.688Z,101800.69
2023-01-08T07:23:50.078Z,101804.25
2023-01-08T07:26:17.547Z,101810.28
2023-01-08T07:28:44.750Z,101816.22
2023-01-08T07:31:11.641Z,101819.66
2023-01-08T07:33:38.592Z,101820.66
2023-01-08T07:36:05.797Z,101800.06
2023-01-08T07:38:32.682Z,101811.25
2023-01-08T07:40:59.488Z,101808.63
2023-01-08T07:43:26.569Z,101805.00
2023-01-08T07:45:53.337Z,101821.25
2023-01-08T07:48:20.170Z,101817.78
2023-01-08T07:50:46.987Z,101810.03
2023-01-08T07:53:17.273Z,101821.28
2023-01-08T07:55:44.190Z,101808.53
2023-01-08T07:58:13.193Z,101805.97
2023-01-08T08:00:40.874Z,101797.19
2023-01-08T08:03:11.607Z,101787.75
2023-01-08T08:05:39.265Z,101795.41
2023-01-08T08:08:10.688Z,101809.19
2023-01-08T08:10:38.829Z,101804.91
2023-01-08T08:13:05.931Z,101810.13
2023-01-08T08:15:34.263Z,101814.41
2023-01-08T08:18:01.243Z,101814.34
2023-01-08T08:20:28.460Z,101822.00
2023-01-08T08:23:10.086Z,101825.47
2023-01-08T08:25:37.552Z,101819.63
2023-01-08T08:28:06.539Z,101814.50
2023-01-08T08:30:35.331Z,101811.84
2023-01-08T08:33:04.319Z,101798.91
2023-01-08T08:35:32.683Z,101802.19
2023-01-08T08:38:00.397Z,101801.59
2023-01-08T08:40:28.253Z,101802.53
2023-01-08T08:42:56.645Z,101800.78
2023-01-08T08:45:24.117Z,101790.53
2023-01-08T08:47:51.262Z,101791.31
2023-01-08T08:50:18.987Z,101789.66
2023-01-08T08:52:46.380Z,101785.38
2023-01-08T08:55:16.101Z,101781.16
2023-01-08T08:57:44.772Z,101781.81
2023-01-08T09:00:12.570Z,101798.03
2023-01-08T09:02:39.547Z,101793.59
2023-01-08T09:05:06.754Z,101792.94
2023-01-08T09:07:33.708Z,101799.88
2023-01-08T09:10:00.499Z,101787.81
2023-01-08T09:12:27.359Z,101783.53
2023-01-08T09:15:10.105Z,101782.75
2023-01-08T09:17:37.067Z,101779.50
2023-01-08T09:20:05.531Z,101782.09
2023-01-08T09:22:32.449Z,101787.31
2023-01-08T09:24:59.246Z,101778.84
2023-01-08T09:27:26.171Z,101779.78
2023-01-08T09:29:53.002Z,101777.31
2023-01-08T09:32:20.455Z,101767.78
2023-01-08T09:34:47.191Z,101782.44
2023-01-08T09:37:14.024Z,101781.69
2023-01-08T09:39:47.991Z,101781.78
2023-01-08T09:42:16.332Z,101776.78
2023-01-08T09:44:47.146Z,101770.84
2023-01-08T09:47:25.220Z,101774.16
2023-01-08T09:49:57.262Z,101773.13
2023-01-08T09:52:24.174Z,101763.63
2023-01-08T09:54:50.993Z,101767.00
2023-01-08T09:57:21.025Z,101766.22
2023-01-08T09:59:48.889Z,101764.53
2023-01-08T10:02:21.856Z,101768.78
2023-01-08T10:04:54.672Z,101761.91
2023-01-08T10:07:24.644Z,101766.13
2023-01-08T10:09:53.613Z,101762.78
2023-01-08T10:12:30.059Z,101754.28
2023-01-08T10:15:00.531Z,101750.00
2023-01-08T10:17:37.522Z,101742.38
2023-01-08T10:20:23.404Z,101737.28
2023-01-08T10:22:54.407Z,101747.63
2023-01-08T10:25:24.776Z,101733.84
2023-01-08T10:27:59.166Z,101731.34
2023-01-08T10:30:38.016Z,101729.75
2023-01-08T10:33:16.067Z,101721.09
2023-01-08T10:35:43.401Z,101728.78
2023-01-08T10:38:30.121Z,101729.63
2023-01-08T10:40:58.909Z,101724.59
2023-01-08T10:43:34.109Z,101723.72
2023-01-08T10:46:07.776Z,101709.28
2023-01-08T10:48:45.731Z,101707.53
2023-01-08T10:51:19.036Z,101703.16
2023-01-08T10:53:45.944Z,101702.34
2023-01-08T10:56:26.015Z,101699.72
2023-01-08T10:58:53.749Z,101687.84
2023-01-08T11:01:26.525Z,101685.31
2023-01-08T11:03:57.011Z,101681.19
2023-01-08T11:06:27.702Z,101675.19
2023-01-08T11:09:18.547Z,101669.28
2023-01-08T11:11:45.563Z,101659.09
2023-01-08T11:14:35.773Z,101659.94
2023-01-08T11:17:13.056Z,101655.59
2023-01-08T11:19:40.140Z,101658.31
2023-01-08T11:22:19.889Z,101654.81
2023-01-08T11:24:49.619Z,101650.53
2023-01-08T11:27:23.779Z,101651.44
2023-01-08T11:30:07.231Z,101648.88
2023-01-08T11:32:52.576Z,101639.41
2023-01-08T11:35:28.749Z,101632.59
2023-01-08T11:37:59.706Z,101621.41
2023-01-08T11:40:54.459Z,101614.69
2023-01-08T11:44:06.854Z,101608.63
2023-01-08T11:47:15.105Z,101612.91
2023-01-08T11:49:46.448Z,101607.75
2023-01-08T11:52:28.456Z,101597.50
2023-01-08T11:55:20.491Z,101606.13
2023-01-08T11:57:59.742Z,101601.81
2023-01-08T12:00:32.531Z,101609.66
2023-01-08T12:03:37.525Z,101612.44
2023-01-08T12:06:35.656Z,101606.31
2023-01-08T12:09:42.730Z,101601.84
2023-01-08T12:12:33.095Z,101600.06
2023-01-08T12:15:18.464Z,101592.25
2023-01-08T12:18:17.727Z,101585.34
2023-01-08T12:21:00.896Z,101574.94
2023-01-08T12:24:19.361Z,101569.78
2023-01-08T12:27:16.338Z,101553.50
2023-01-08T12:29:58.464Z,101534.53
2023-01-08T12:32:48.779Z,101520.81
2023-01-08T12:35:21.389Z,101515.69
2023-01-08T12:38:04.484Z,101515.69
2023-01-08T12:40:39.902Z,101507.91
2023-01-08T12:43:14.038Z,101489.00
2023-01-08T12:45:45.253Z,101483.78
2023-01-08T12:48:19.228Z,101482.06
2023-01-08T12:50:52.195Z,101470.94
2023-01-08T12:53:45.584Z,101475.22
2023-01-08T12:56:18.518Z,101475.22
2023-01-08T12:58:55.187Z,101473.50
2023-01-08T13:01:37.255Z,101473.44
2023-01-08T13:04:05.382Z,101473.44
2023-01-08T13:06:32.442Z,101478.59
2023-01-08T13:09:01.708Z,101468.31
2023-01-08T13:11:30.827Z,101466.72
2023-01-08T13:14:02.068Z,101464.16
2023-01-08T13:16:29.760Z,101463.38
2023-01-08T13:18:59.796Z,101455.72
2023-01-08T13:21:50.191Z,101454.88
2023-01-08T13:24:39.606Z,101454.97
2023-01-08T13:27:12.123Z,101460.13
2023-01-08T13:29:43.680Z,101450.75
2023-01-08T13:32:47.412Z,101443.09
2023-01-08T13:35:14.476Z,101441.47
2023-01-08T13:37:47.514Z,101419.22
2023-01-08T13:40:36.141Z,101408.16
2023-01-08T13:43:06.205Z,101404.03
2023-01-08T13:45:33.674Z,101406.72
2023-01-08T13:48:00.587Z,101417.94
2023-01-08T13:50:31.258Z,101403.50
2023-01-08T13:53:01.272Z,101393.38
2023-01-08T13:55:35.216Z,101398.47
2023-01-08T13:58:26.309Z,101395.09
2023-01-08T14:00:55.564Z,101391.75
2023-01-08T14:03:27.829Z,101379.81
2023-01-08T14:06:20.325Z,101379.00
2023-01-08T14:08:58.824Z,101375.53
2023-01-08T14:11:32.726Z,101373.00
2023-01-08T14:13:59.877Z,101374.00
2023-01-08T14:16:26.803Z,101382.63
2023-01-08T14:19:00.368Z,101374.06
2023-01-08T14:21:27.684Z,101386.13
2023-01-08T14:23:54.871Z,101387.78
2023-01-08T14:26:37.408Z,101377.50
2023-01-08T14:29:21.495Z,101374.00
2023-01-08T14:31:52.373Z,101370.44
2023-01-08T14:34:20.577Z,101371.25
2023-01-08T14:36:53.714Z,101374.66
2023-01-08T14:39:34.799Z,101358.16
2023-01-08T14:42:34.108Z,101371.25
2023-01-08T14:45:23.211Z,101365.13
2023-01-08T14:47:56.273Z,101372.09
2023-01-08T14:50:27.684Z,101376.59
2023-01-08T14:53:05.593Z,101372.25
2023-01-08T14:55:35.656Z,101367.09
2023-01-08T14:58:03.018Z,101369.66
2023-01-08T15:00:31.689Z,101354.84
2023-01-08T15:02:58.753Z,101361.69
2023-01-08T15:05:31.412Z,101364.94
2023-01-08T15:08:04.900Z,101367.47
2023-01-08T15:10:33.697Z,101364.84
2023-01-08T15:13:03.792Z,101348.53
2023-01-08T15:15:32.647Z,101350.19
2023-01-08T15:18:02.307Z,101343.41
2023-01-08T15:20:32.370Z,101351.09
2023-01-08T15:23:00.072Z,101341.72
2023-01-08T15:25:29.628Z,101346.84
2023-01-08T15:28:04.493Z,101338.28
2023-01-08T15:30:39.981Z,101336.56
2023-01-08T15:33:22.855Z,101337.41
2023-01-08T15:35:51.024Z,101328.72
2023-01-08T15:38:21.259Z,101318.91
2023-01-08T15:40:48.769Z,101332.00
2023-01-08T15:43:19.017Z,101316.41
2023-01-08T15:45:48.700Z,101315.59
2023-01-08T15:48:16.091Z,101297.50
2023-01-08T15:50:44.598Z,101295.78
2023-01-08T15:53:25.075Z,101295.00
2023-01-08T15:55:52.474Z,101284.91
2023-01-08T15:58:19.473Z,101287.56
2023-01-08T16:00:47.147Z,101270.97
2023-01-08T16:03:15.094Z,101279.53
2023-01-08T16:05:42.567Z,101272.72
2023-01-08T16:08:10.692Z,101271.88
2023-01-08T16:10:40.964Z,101266.06
2023-01-08T16:13:12.289Z,101244.47
2023-01-08T16:15:49.066Z,101258.34
2023-01-08T16:18:16.186Z,101264.38
2023-01-08T16:20:43.221Z,101257.56
2023-01-08T16:23:10.174Z,101251.59
2023-01-08T16:25:39.487Z,101258.56
2023-01-08T16:28:06.735Z,101228.47
2023-01-08T16:30:42.844Z,101237.13
2023-01-08T16:33:10.097Z,101228.59
2023-01-08T16:35:37.032Z,101205.28
2023-01-08T16:38:04.338Z,101214.13
2023-01-08T16:40:31.363Z,101221.84
2023-01-08T16:43:04.234Z,101203.78
2023-01-08T16:45:31.320Z,101204.81
2023-01-08T16:47:58.331Z,101190.16
2023-01-08T16:50:25.416Z,101176.44
2023-01-08T16:52:52.344Z,101186.06
2023-01-08T16:55:19.419Z,101177.47
2023-01-08T16:57:46.836Z,101171.56
2023-01-08T17:00:14.308Z,101167.16
2023-01-08T17:02:41.859Z,101163.78
2023-01-08T17:05:09.267Z,101158.72
2023-01-08T17:07:36.425Z,101142.38
2023-01-08T17:10:04.209Z,101142.50
2023-01-08T17:12:32.710Z,101137.28
2023-01-08T17:15:00.489Z,101143.19
2023-01-08T17:17:27.655Z,101136.13
2023-01-08T17:19:54.905Z,101133.66
2023-01-08T17:22:21.994Z,101145.81
2023-01-08T17:24:49.370Z,101136.38
2023-01-08T17:27:16.564Z,101128.72
2023-01-08T17:29:43.684Z,101114.97
2023-01-08T17:32:12.355Z,101096.88
2023-01-08T17:34:40.106Z,101107.31
2023-01-08T17:37:06.966Z,101107.34
2023-01-08T17:39:34.316Z,101102.94
2023-01-08T17:42:19.870Z,101111.69
2023-01-08T17:44:49.475Z,101093.66
2023-01-08T17:47:16.752Z,101095.22
2023-01-08T17:49:44.158Z,101090.97
2023-01-08T17:52:11.514Z,101091.84
2023-01-08T17:54:38.871Z,101085.66
2023-01-08T17:57:06.701Z,101081.41
2023-01-08T17:59:35.473Z,101078.97
2023-01-08T18:02:03.001Z,101075.47
2023-01-08T18:04:33.586Z,101068.47
2023-01-08T18:07:01.273Z,101076.38
2023-01-08T18:09:28.586Z,101080.59
2023-01-08T18:11:56.255Z,101069.31
2023-01-08T18:14:25.940Z,101061.69
2023-01-08T18:16:54.187Z,101075.38
2023-01-08T18:19:21.480Z,101052.19
2023-01-08T18:21:48.976Z,101051.34
2023-01-08T18:24:16.442Z,101053.00
2023-01-08T18:26:43.753Z,101025.66
2023-01-08T18:29:11.607Z,101031.63
2023-01-08T18:31:39.356Z,101029.88
2023-01-08T18:34:07.552Z,101048.63
2023-01-08T18:36:35.202Z,101049.56
2023-01-08T18:39:02.615Z,101051.19
2023-01-08T18:41:48.249Z,101057.22
2023-01-08T18:44:15.971Z,101058.03
2023-01-08T18:46:43.080Z,101046.97
2023-01-08T18:49:10.324Z,101063.28
2023-01-08T18:51:37.619Z,101053.88
2023-01-08T18:54:05.032Z,101072.69
2023-01-08T18:56:35.168Z,101058.09
2023-01-08T18:59:04.398Z,101067.56
2023-01-08T19:01:33.064Z,101056.31
2023-01-08T19:04:00.496Z,101053.66
2023-01-08T19:06:27.911Z,101037.34
2023-01-08T19:09:17.228Z,100996.66
2023-01-08T19:11:44.185Z,101008.84
2023-01-08T19:14:12.957Z,101004.59
2023-01-08T19:16:41.369Z,101027.81
2023-01-08T19:19:08.428Z,101017.50
2023-01-08T19:21:35.861Z,101018.41
2023-01-08T19:24:06.107Z,101011.63
2023-01-08T19:26:33.029Z,101008.19
2023-01-08T19:28:59.879Z,101017.59
2023-01-08T19:31:26.806Z,101004.69
2023-01-08T19:33:53.708Z,101010.69
2023-01-08T19:36:21.304Z,101017.69
2023-01-08T19:38:49.646Z,101015.91
2023-01-08T19:41:35.360Z,101010.72
2023-01-08T19:44:08.743Z,101009.78
2023-01-08T19:46:37.662Z,101007.09
2023-01-08T19:49:05.871Z,101010.69
2023-01-08T19:51:34.447Z,100989.31
2023-01-08T19:54:02.273Z,100992.69
2023-01-08T19:56:31.197Z,100978.97
2023-01-08T19:58:59.376Z,100994.56
2023-01-08T20:01:28.706Z,100986.91
2023-01-08T20:03:57.355Z,100998.13
2023-01-08T20:06:27.079Z,100986.09
2023-01-08T20:08:58.527Z,100972.38
2023-01-08T20:11:26.208Z,100942.25
2023-01-08T20:13:56.420Z,100948.38
2023-01-08T20:16:25.031Z,100950.03
2023-01-08T20:18:57.882Z,100937.28
2023-01-08T20:21:26.687Z,100912.38
2023-01-08T20:24:00.622Z,100910.75
2023-01-08T20:26:29.548Z,100895.34
2023-01-08T20:28:58.973Z,100892.75
2023-01-08T20:31:33.602Z,100889.38
2023-01-08T20:34:03.984Z,100881.81
2023-01-08T20:36:36.992Z,100863.88
2023-01-08T20:39:10.061Z,100871.69
2023-01-08T20:41:38.029Z,100864.06
2023-01-08T20:44:09.234Z,100865.75
2023-01-08T20:46:41.574Z,100867.53
2023-01-08T20:49:17.703Z,100850.25
2023-01-08T20:51:57.890Z,100851.94
2023-01-08T20:54:30.908Z,100845.09
2023-01-08T20:57:00.934Z,100820.25
2023-01-08T20:59:29.350Z,100809.03
2023-01-08T21:01:57.595Z,100800.63
2023-01-08T21:04:25.613Z,100815.25
2023-01-08T21:06:55.099Z,100818.59
2023-01-08T21:09:25.064Z,100812.69
2023-01-08T21:11:53.347Z,100790.19
2023-01-08T21:14:22.369Z,100792.75
2023-01-08T21:16:50.918Z,100787.59
2023-01-08T21:19:18.034Z,100791.81
2023-01-08T21:21:46.526Z,100793.53
2023-01-08T21:24:15.724Z,100769.53
2023-01-08T21:26:46.394Z,100761.75
2023-01-08T21:29:15.368Z,100756.69
2023-01-08T21:31:45.860Z,100762.72
2023-01-08T21:34:16.662Z,100750.66
2023-01-08T21:36:44.286Z,100732.63
2023-01-08T21:39:12.697Z,100753.28
2023-01-08T21:41:59.166Z,100761.97
2023-01-08T21:44:51.140Z,100760.22
2023-01-08T21:47:19.585Z,100765.34
2023-01-08T21:50:25.268Z,100763.56
2023-01-08T21:53:11.194Z,100739.41
2023-01-08T21:55:38.254Z,100755.69
2023-01-08T21:58:07.085Z,100729.13
2023-01-08T22:00:34.167Z,100725.69
2023-01-08T22:03:00.955Z,100717.06
2023-01-08T22:05:28.144Z,100703.31
2023-01-08T22:07:55.085Z,100706.81
2023-01-08T22:10:22.109Z,100707.56
2023-01-08T22:12:48.918Z,100697.28
2023-01-08T22:15:16.168Z,100704.97
2023-01-08T22:17:42.914Z,100696.44
2023-01-08T22:20:10.672Z,100701.66
2023-01-08T22:22:38.594Z,100688.81
2023-01-08T22:25:05.869Z,100688.91
2023-01-08T22:27:32.662Z,100676.03
2023-01-08T22:29:59.589Z,100671.81
2023-01-08T22:32:26.475Z,100655.53
2023-01-08T22:34:56.248Z,100651.34
2023-01-08T22:37:23.430Z,100648.78
2023-01-08T22:39:50.277Z,100658.25
2023-01-08T22:42:17.475Z,100655.81
2023-01-08T22:44:44.513Z,100674.00
2023-01-08T22:47:11.458Z,100682.53
2023-01-08T22:49:38.310Z,100667.91
2023-01-08T22:52:05.187Z,100661.91
2023-01-08T22:54:31.912Z,100667.91
2023-01-08T22:56:58.699Z,100657.59
2023-01-08T22:59:25.525Z,100651.53
2023-01-08T23:01:52.271Z,100667.06
2023-01-08T23:04:19.110Z,100667.06
2023-01-08T23:06:46.139Z,100667.06
2023-01-08T23:09:12.934Z,100667.06
2023-01-08T23:11:40.094Z,100661.94
2023-01-08T23:14:07.035Z,100656.06
2023-01-08T23:16:34.290Z,100639.69
2023-01-08T23:19:01.282Z,100632.78
2023-01-08T23:21:28.686Z,100639.59
2023-01-08T23:23:56.025Z,100630.97
2023-01-08T23:26:29.233Z,100633.59
2023-01-08T23:28:57.653Z,100622.41
2023-01-08T23:31:27.422Z,100613.00
2023-01-08T23:33:54.654Z,100612.13
2023-01-08T23:36:21.832Z,100608.75
2023-01-08T23:38:53.632Z,100582.16
2023-01-08T23:41:23.274Z,100586.50
2023-01-08T23:43:50.345Z,100571.94
2023-01-08T23:46:18.098Z,100566.78
2023-01-08T23:48:45.027Z,100556.53
2023-01-08T23:51:11.829Z,100566.00
2023-01-08T23:56:50.944Z,100546.22
2023-01-08T23:59:17.898Z,100566.06
